Terminal Aerodrome Forecast
Issued by NWS

Home | Current Version | Previous Version | Text Only | Print | Product List | Glossary On
Versions: 1 2 3 4 5 6 7 8 9 10 11 12 13 14 15
000
FTUS45 KREV 211157
TAFTRK
TAF
KTRK 211157Z 2112/2212 18008KT 3SM -SHSN SCT015 OVC025
      WS020/24035KT
     FM212100 20010G18KT 5SM -SHSN BKN025 OVC030
     FM220500 19014G24KT 1/2SM SN BKN008 OVC015 WS020/24045KT=

USA.gov is the U.S. government's official web portal to all federal, state and local government web resources and services.